Terminal Aerodrome Forecast
Issued by NWS Sioux Falls, SD

Home | Current Version | Previous Version | Graphics & Text | Print | Product List | Glossary Off
Versions: 1 2 3 4 5 6 7 8 9 10 11 12 13 14 15

000
FTUS43 KFSD 261132
TAFHON
TAF
KHON 261132Z 2612/2712 VRB04KT P6SM SCT250
     FM261800 16008KT P6SM BKN200
     FM262000 12006KT P6SM BKN150
     FM270600 16006KT P6SM BKN100=

USA.gov is the U.S. government's official web portal to all federal, state and local government web resources and services.